Aeroporto :
LOGIN :

Iscrizione | Disclaimer

   EN    FR    IT 

 










Sommario :    VFR   VFR Marginale   IFR   IFR Intensivo   IFR Molto Intensivo
Visibilità : 
Base nubi : 
>= 8 km
>= 3000ft
5 / 8 km
1000 / 3000 ft
1500m / 5 km
500 / 1000 ft
800 / 1500m
200 / 500 ft
< 800m
< 200 ft
Simboli :   Temporali  Nebbia  Neve Forte  Precipitazioni Forti  Vento > 20 kt
SIGMETs :   Varie  Temporali  Ghiacco  Turbolenza  Onda orograficha  Ceneri Vulcaniche






- Altitudine del aeroporto : 288 ft
- Codice IATA : BZZ


EGVN - RAF Brize Norton

ULTIMO METAR :
  • 291020Z 24005KT 9999 FEW030 06/02 Q1009 NOSIG RMK BLU BLU

METARs OBSOLETI :
  • 290950Z 24004KT 9999 FEW030 05/01 Q1008 NOSIG RMK BLU BLU
  • 290920Z 21004KT 9999 FEW030 SCT250 04/01 Q1008 NOSIG RMK BLU BLU
  • 290850Z 23003KT 9999 FEW030 SCT180 BKN200 02/00 Q1008 NOSIG RMK BLU BLU
  • 290820Z 26005KT 9999 FEW030 SCT230 02/00 Q1007 NOSIG RMK BLU BLU
  • 290750Z 25004KT 9999 FEW030 SCT230 02/M00 Q1007 NOSIG RMK BLU BLU

TAF TAF EGVN
Valido dal 29 a 09 ore il 30 a 09 ore UTC


290739Z 2909/3009 25008KT 9999 FEW040
PROB30
TEMPO 2916/3001 BKN015
BECMG 3001/3004 BKN007
TEMPO 3004/3009 3000 -DZ BKN004
PROB30
TEMPO 3007/3009 1500 BR BKN002



MetMap, La meteo Aeronautica in un colpo d'occhio ! - Copyright ORBIFLY Dicembre 2007 - Disclaimer

ORBIFLY MET'MAP TEAM :

Programmazione e sviluppo : Alexandra Zaïnal
Concezione : Baudouin d'Aumeries
Aiuto per la programmazione : Marc-Olivier Méhu
Supporto tecnico e logistico : Manuel Goepfert
Aiuto per la traduzione : Arnaldo La Scala

Contatto : metmap@orbifly.com




FONTI E CREDITI :

   NOAA